SBSM/RIA METAR and TAF weather

Enter ICAO airport designator
Station Type Date Time Source
SBSM METAR 2020/08/15 10:00 UTC NOAA

SBSM 151000Z 29003KT 9999 OVC030 16/14 Q1008


Station Type Date Time Source
SBSM Decoded METAR 2020/08/15 10:00 UTC NOAA

Santa Maria Aero-Porto , Brazil (SBSM) 29-43S 053-42W
Aug 15, 2020 - 06:00 AM EDT / 2020.08.15 1000 UTC
Wind: from the WNW (290 degrees) at 3 MPH (3 KT):0
Visibility: greater than 7 mile(s):0
Sky conditions: overcast
Temperature: 60 F (16 C)
Dew Point: 57 F (14 C)
Relative Humidity: 87%
Pressure (altimeter): 29.77 in. Hg (1008 hPa)
ob: SBSM 151000Z 29003KT 9999 OVC030 16/14 Q1008
cycle: 10

Station Type Date Time Source
SBSM TAF 2020/08/15 06:51 UTC NOAA

TAF SBSM 150300Z 1506/1518 36008KT 8000 RA BKN007 TN16/1506Z TX22/1517Z
BECMG 1509/1511 5000 BR BKN004
BECMG 1513/1515 30006KT BKN010
RMK PEN

Example: see airport list